Saint Eustatius, St. Eustatius

6:09 PM AST on July 27, 2016 (GMT -0400)
IDUTCHCA4 | | Change Station

Elev 575 ft 17.48 °N, 62.97 °W | Updated 50 seconds ago

Partly Cloudy
Partly Cloudy
84.0 °F
Feels Like 93 °F
N
12.0
Wind Variable Wind from NE

Today
High -- | Low -- °F
--% Chance of Precip.
Yesterday
High -- | Low -- °F
Precip. -- in
Pressure 29.98 in
Visibility 6.2 miles
Clouds Few 1900 ft
Heat Index 93 °F
Dew Point 77 °F
Humidity 78%
Rainfall 0.00 in
Snow Depth Not available.
5:49 AM 6:46 PM
Last Quarter, 39% visible
METAR TKPK 272200Z 05007KT 9999 FEW019 29/25 Q1015
Pressure 29.98 in
Visibility 6.2 miles
Clouds Few 1900 ft
Heat Index 93 °F
Dew Point 77 °F
Humidity 78%
Rainfall 0.00 in
Snow Depth Not available.
5:49 AM 6:46 PM
Last Quarter, 39% visible
METAR TKPK 272200Z 05007KT 9999 FEW019 29/25 Q1015

10-Day Weather Forecast

No radar image for this location.
×

Almanac

Astronomy

Jul. 27, 2016 Rise Set
Actual Time
Civil Twilight
Nautical Twilight
Astronomical Twilight
Moon
Length of Visible Light
Length of Day
Tomorrow will be .
, % of the Moon is Illuminated

Today's Extremes

Country Highs Country Lows

Community

WunderPhotos

Upload Photos

1,927,944 photos uploaded!

WunderBlog® & News

Nearby

Air Quality

  Air Quality AQ Index Pollutant
Not available.

Snow Depth

Station Depth Elevation

Earthquake Activity

City Distance Mag. Time & Date
Minimum magnitude displayed is 2.5.

Coastal Water Temperatures

Place Temperature

Stations

Nearby Weather Stations

Station Location Temp. Windchill Dew Point Humidity Wind Precip. Elev Updated Type